Time;durP1;ratioP1;P1;durP2;ratioP2;P2;SDS_P1;SDS_P2;PMS_P1;PMS_P2;Temp;Humidity;BMP_temperature;BMP_pressure;BME280_temperature;BME280_humidity;BME280_pressure;Samples;Min_cycle;Max_cycle;Signal;HPM_P1;HPM_P2
2023/03/17 00:02:19;;;;;;;4.35;2.70;;;9.90;99.90;;;;;;5012732;28;20425;-74
2023/03/17 00:04:44;;;;;;;5.63;3.20;;;9.90;99.90;;;;;;5012594;28;20049;-73
2023/03/17 00:07:16;;;;;;;6.50;3.50;;;9.90;99.90;;;;;;4999249;28;20653;-74
2023/03/17 00:09:41;;;;;;;5.80;2.90;;;9.90;99.90;;;;;;5009373;28;20109;-74
2023/03/17 00:12:10;;;;;;;6.85;3.35;;;9.90;99.90;;;;;;5007298;28;20077;-74
2023/03/17 00:14:36;;;;;;;7.88;3.22;;;9.90;99.90;;;;;;5004087;28;20033;-73
2023/03/17 00:17:02;;;;;;;6.30;2.90;;;9.90;99.90;;;;;;5011729;28;20018;-73
2023/03/17 00:19:31;;;;;;;4.35;2.97;;;9.90;99.90;;;;;;5011735;28;20033;-73
2023/03/17 00:21:58;;;;;;;6.30;3.20;;;9.90;99.90;;;;;;5011695;28;20482;-73
2023/03/17 00:24:24;;;;;;;6.43;2.92;;;9.90;99.90;;;;;;5012419;28;20022;-75
2023/03/17 00:26:50;;;;;;;6.80;3.28;;;9.90;99.90;;;;;;5012423;28;20113;-73
2023/03/17 00:29:15;;;;;;;5.43;3.00;;;9.80;99.90;;;;;;5011883;28;20107;-73
2023/03/17 00:31:44;;;;;;;6.85;3.13;;;9.80;99.90;;;;;;4999206;28;20478;-73
2023/03/17 00:34:17;;;;;;;5.32;2.97;;;9.70;99.90;;;;;;5012156;28;20088;-73
2023/03/17 00:36:46;;;;;;;8.18;3.50;;;9.70;99.90;;;;;;5003925;28;20081;-73
2023/03/17 00:39:15;;;;;;;5.90;3.55;;;9.60;99.90;;;;;;4997577;28;20029;-73
2023/03/17 00:41:42;;;;;;;6.15;3.20;;;9.50;99.90;;;;;;5012748;28;20037;-73
2023/03/17 00:44:08;;;;;;;7.43;3.60;;;9.50;99.90;;;;;;5008917;28;20033;-73
2023/03/17 00:46:36;;;;;;;4.60;3.00;;;9.50;99.90;;;;;;5002561;28;20030;-73
2023/03/17 00:49:30;;;;;;;7.90;3.55;;;9.40;99.90;;;;;;5006379;28;20050;-73
2023/03/17 00:51:55;;;;;;;5.82;3.20;;;9.40;99.90;;;;;;5001919;28;20525;-74
2023/03/17 00:54:21;;;;;;;5.53;3.13;;;9.30;99.90;;;;;;5011561;28;20029;-74
2023/03/17 00:56:48;;;;;;;5.63;3.08;;;9.30;99.90;;;;;;5003299;28;20022;-73
2023/03/17 00:59:17;;;;;;;5.05;3.20;;;9.30;99.90;;;;;;5005372;28;20061;-74
2023/03/17 01:01:42;;;;;;;5.82;3.28;;;9.30;99.90;;;;;;5010507;28;20060;-73
2023/03/17 01:04:09;;;;;;;5.32;3.35;;;9.30;99.90;;;;;;5002708;28;20046;-73
2023/03/17 01:06:36;;;;;;;6.78;3.30;;;9.20;99.90;;;;;;5010210;28;20177;-74
2023/03/17 01:09:03;;;;;;;5.40;3.42;;;9.20;99.90;;;;;;5002246;28;20041;-73
2023/03/17 01:11:29;;;;;;;5.68;2.95;;;9.20;99.90;;;;;;5005317;28;20382;-73
2023/03/17 01:13:55;;;;;;;5.35;3.33;;;9.20;99.90;;;;;;4999006;28;20034;-74
2023/03/17 01:16:22;;;;;;;4.63;3.53;;;9.20;99.90;;;;;;5016525;28;20032;-74
2023/03/17 01:18:48;;;;;;;6.07;3.10;;;9.20;99.90;;;;;;5001010;28;20045;-73
2023/03/17 01:21:14;;;;;;;5.53;3.40;;;9.20;99.90;;;;;;5015481;28;20026;-74
2023/03/17 01:23:40;;;;;;;5.18;3.20;;;9.20;99.90;;;;;;5016403;28;20422;-73
2023/03/17 01:26:06;;;;;;;5.88;3.10;;;9.10;99.90;;;;;;5009087;28;20448;-73
2023/03/17 01:28:32;;;;;;;7.07;3.00;;;9.10;99.90;;;;;;5005709;28;20032;-74
2023/03/17 01:30:59;;;;;;;7.10;3.25;;;9.10;99.90;;;;;;5007209;28;20354;-73
2023/03/17 01:33:25;;;;;;;4.57;2.80;;;9.10;99.90;;;;;;4986780;28;20117;-73
2023/03/17 01:35:51;;;;;;;8.20;3.30;;;9.10;99.90;;;;;;5019293;28;20512;-74
2023/03/17 01:38:17;;;;;;;6.20;3.60;;;9.10;99.90;;;;;;4991032;28;20363;-74
2023/03/17 01:40:49;;;;;;;5.93;3.20;;;9.10;99.90;;;;;;5000495;28;20065;-74
2023/03/17 01:43:22;;;;;;;7.65;2.83;;;9.10;99.90;;;;;;4993043;28;20474;-74
2023/03/17 01:46:20;;;;;;;9.40;3.40;;;9.00;99.90;;;;;;5001879;28;20046;-74
2023/03/17 01:49:03;;;;;;;5.53;3.10;;;9.00;99.90;;;;;;5013472;28;20069;-74
2023/03/17 01:51:52;;;;;;;6.35;3.20;;;9.00;99.90;;;;;;5011685;28;20101;-73
2023/03/17 01:54:46;;;;;;;6.20;3.00;;;9.10;99.90;;;;;;5002739;28;20430;-74
2023/03/17 01:57:18;;;;;;;5.30;3.22;;;9.10;99.90;;;;;;5006869;28;20393;-74
2023/03/17 01:59:58;;;;;;;4.20;3.00;;;9.10;99.90;;;;;;5001262;28;20049;-73
2023/03/17 02:02:31;;;;;;;7.03;3.10;;;9.00;99.90;;;;;;5019520;28;20076;-74
2023/03/17 02:04:57;;;;;;;5.68;3.08;;;9.00;99.90;;;;;;5008977;28;20123;-74
2023/03/17 02:07:25;;;;;;;4.55;3.03;;;9.10;99.90;;;;;;5010642;28;20030;-74
2023/03/17 02:09:52;;;;;;;4.35;2.85;;;9.10;99.90;;;;;;5014689;28;20493;-73
2023/03/17 02:12:19;;;;;;;4.47;3.10;;;9.10;99.90;;;;;;5015082;28;20027;-73
2023/03/17 02:14:45;;;;;;;6.22;3.00;;;9.10;99.90;;;;;;5016829;28;20029;-73
2023/03/17 02:17:11;;;;;;;5.38;3.15;;;9.10;99.90;;;;;;5004760;28;20036;-73
2023/03/17 02:19:37;;;;;;;4.90;2.92;;;9.10;99.90;;;;;;5010155;28;20037;-73
2023/03/17 02:22:03;;;;;;;4.18;2.65;;;9.10;99.90;;;;;;4992667;28;20106;-73
2023/03/17 02:24:43;;;;;;;4.55;2.40;;;9.10;99.90;;;;;;5005503;28;20082;-74
2023/03/17 02:27:11;;;;;;;6.05;2.75;;;9.20;99.90;;;;;;4985608;28;20038;-73
2023/03/17 02:29:37;;;;;;;5.15;2.97;;;9.20;99.90;;;;;;5007058;28;20409;-74
2023/03/17 02:32:04;;;;;;;5.88;2.58;;;9.20;99.90;;;;;;5014571;28;20105;-73
2023/03/17 02:34:31;;;;;;;5.78;2.80;;;9.30;99.90;;;;;;4996444;28;20128;-73
2023/03/17 02:36:57;;;;;;;4.63;2.83;;;9.30;99.90;;;;;;5013948;28;20025;-73
2023/03/17 02:39:23;;;;;;;8.43;2.90;;;9.40;99.90;;;;;;5008585;28;20030;-72
2023/03/17 02:41:49;;;;;;;4.43;2.70;;;9.50;99.90;;;;;;5002714;28;20026;-73
2023/03/17 02:44:15;;;;;;;4.82;2.78;;;9.50;99.90;;;;;;4999501;28;20026;-73
2023/03/17 02:46:41;;;;;;;4.55;2.85;;;9.50;99.90;;;;;;5008793;28;20088;-73
2023/03/17 02:49:07;;;;;;;6.57;2.90;;;9.60;99.90;;;;;;4993754;28;20057;-73
2023/03/17 02:51:33;;;;;;;5.57;2.90;;;9.60;99.90;;;;;;5012294;28;20022;-72
2023/03/17 02:53:58;;;;;;;4.70;2.63;;;9.60;99.90;;;;;;5010280;28;20097;-74
2023/03/17 02:56:24;;;;;;;5.63;2.85;;;9.60;99.90;;;;;;5009105;28;20105;-73
2023/03/17 02:58:51;;;;;;;6.68;2.80;;;9.60;99.90;;;;;;4998548;28;20059;-74
2023/03/17 03:01:17;;;;;;;5.88;2.60;;;9.60;99.90;;;;;;5009202;28;20030;-74
2023/03/17 03:03:42;;;;;;;5.15;2.65;;;9.60;99.90;;;;;;5014268;28;20028;-74
2023/03/17 03:06:08;;;;;;;3.67;2.47;;;9.60;99.90;;;;;;5009287;28;20033;-74
2023/03/17 03:08:34;;;;;;;5.30;2.95;;;9.60;99.90;;;;;;4996188;28;20036;-74
2023/03/17 03:11:01;;;;;;;6.00;2.65;;;9.60;99.90;;;;;;5012308;28;20076;-74
2023/03/17 03:13:27;;;;;;;3.85;2.60;;;9.60;99.90;;;;;;5004881;28;20533;-74
2023/03/17 03:15:53;;;;;;;5.97;2.83;;;9.60;99.90;;;;;;4998350;28;20026;-74
2023/03/17 03:18:18;;;;;;;6.05;2.88;;;9.60;99.90;;;;;;5009233;28;20053;-73
2023/03/17 03:20:46;;;;;;;5.60;2.88;;;9.60;99.90;;;;;;5007241;28;20160;-73
2023/03/17 03:23:12;;;;;;;6.13;2.67;;;9.60;99.90;;;;;;5005707;28;20216;-73
2023/03/17 03:25:38;;;;;;;5.65;2.80;;;9.70;99.90;;;;;;4996542;28;20121;-73
2023/03/17 03:28:06;;;;;;;4.43;2.70;;;9.70;99.90;;;;;;5007484;28;20107;-72
2023/03/17 03:30:33;;;;;;;4.70;2.72;;;9.70;99.90;;;;;;5007057;28;20165;-73
2023/03/17 03:32:59;;;;;;;5.55;3.08;;;9.70;99.90;;;;;;5009257;28;20030;-73
2023/03/17 03:35:24;;;;;;;4.00;2.47;;;9.70;99.90;;;;;;5010059;28;20022;-73
2023/03/17 03:37:50;;;;;;;4.28;2.85;;;9.70;99.90;;;;;;5015006;28;20488;-73
2023/03/17 03:40:16;;;;;;;5.18;2.85;;;9.70;99.90;;;;;;5005093;28;20022;-73
2023/03/17 03:42:42;;;;;;;3.10;2.55;;;9.70;99.90;;;;;;5004497;28;20481;-74
2023/03/17 03:45:08;;;;;;;7.82;2.67;;;9.70;99.90;;;;;;5014395;28;20084;-74
2023/03/17 03:47:34;;;;;;;4.07;3.05;;;9.70;99.90;;;;;;5011171;28;20076;-74
2023/03/17 03:50:00;;;;;;;3.80;2.70;;;9.70;99.90;;;;;;4999774;28;20046;-74
2023/03/17 03:52:26;;;;;;;3.97;2.90;;;9.70;99.90;;;;;;4984196;28;20021;-74
2023/03/17 03:54:52;;;;;;;8.05;3.03;;;9.70;99.90;;;;;;5004272;28;20465;-74
2023/03/17 03:57:17;;;;;;;4.45;2.67;;;9.70;99.90;;;;;;5006337;28;20037;-74
2023/03/17 03:59:43;;;;;;;4.95;2.63;;;9.70;99.90;;;;;;4983481;28;20124;-73
2023/03/17 04:02:09;;;;;;;5.60;3.13;;;9.60;99.90;;;;;;5005305;28;20420;-73
2023/03/17 04:04:35;;;;;;;5.60;2.70;;;9.60;99.90;;;;;;5013607;28;20072;-73
2023/03/17 04:07:00;;;;;;;6.95;3.15;;;9.70;99.90;;;;;;4994697;28;20038;-74
2023/03/17 04:09:26;;;;;;;8.27;3.03;;;9.60;99.90;;;;;;4995482;28;20030;-74
2023/03/17 04:11:51;;;;;;;5.00;2.95;;;9.60;99.90;;;;;;5005427;28;20057;-74
2023/03/17 04:14:17;;;;;;;4.68;2.90;;;9.60;99.90;;;;;;5010959;28;20486;-74
2023/03/17 04:16:43;;;;;;;6.63;3.30;;;9.60;99.90;;;;;;5010123;28;20025;-73
2023/03/17 04:19:09;;;;;;;6.88;3.58;;;9.60;99.90;;;;;;5014082;28;20507;-73
2023/03/17 04:21:35;;;;;;;4.85;3.40;;;9.50;99.90;;;;;;5014209;28;20022;-73
2023/03/17 04:24:03;;;;;;;5.85;3.08;;;9.50;99.90;;;;;;5000238;28;20035;-73
2023/03/17 04:26:30;;;;;;;4.85;3.10;;;9.50;99.90;;;;;;5012388;28;20424;-73
2023/03/17 04:28:56;;;;;;;7.38;3.40;;;9.50;99.90;;;;;;5014079;28;20026;-73
2023/03/17 04:31:22;;;;;;;6.78;3.50;;;9.50;99.90;;;;;;5011507;28;20466;-73
2023/03/17 04:33:47;;;;;;;7.13;3.45;;;9.50;99.90;;;;;;4998323;28;20061;-73
2023/03/17 04:36:20;;;;;;;7.00;3.40;;;9.50;99.90;;;;;;5013198;28;20315;-73
2023/03/17 04:38:46;;;;;;;5.90;3.00;;;9.50;99.90;;;;;;4995632;28;20038;-73
2023/03/17 04:41:12;;;;;;;11.65;3.83;;;9.50;99.90;;;;;;5013585;28;20033;-74
2023/03/17 04:43:38;;;;;;;8.18;3.72;;;9.50;99.90;;;;;;4992294;28;20117;-74
2023/03/17 04:46:04;;;;;;;4.93;3.53;;;9.50;99.90;;;;;;5006287;28;20105;-73
2023/03/17 04:48:30;;;;;;;5.03;3.35;;;9.60;99.90;;;;;;5012408;28;20045;-73
2023/03/17 04:50:56;;;;;;;6.65;3.35;;;9.50;99.90;;;;;;5003189;28;20040;-74
2023/03/17 04:53:22;;;;;;;5.03;3.65;;;9.60;99.90;;;;;;5011340;28;20026;-74
2023/03/17 04:55:47;;;;;;;6.00;3.35;;;9.50;99.90;;;;;;5014386;28;20560;-73
2023/03/17 04:58:13;;;;;;;8.77;3.67;;;9.50;99.90;;;;;;4999828;28;20083;-73
2023/03/17 05:00:39;;;;;;;5.88;3.47;;;9.50;99.90;;;;;;5013723;28;20010;-73
2023/03/17 05:03:05;;;;;;;5.28;3.35;;;9.50;99.90;;;;;;5001005;28;20030;-73
2023/03/17 05:05:32;;;;;;;6.53;3.50;;;9.50;99.90;;;;;;5009353;28;20034;-74
2023/03/17 05:07:57;;;;;;;7.32;3.53;;;9.50;99.90;;;;;;5001406;28;20057;-74
2023/03/17 05:10:23;;;;;;;5.72;3.13;;;9.50;99.90;;;;;;5013196;28;20026;-74
2023/03/17 05:12:49;;;;;;;7.32;3.30;;;9.50;99.90;;;;;;4988359;28;20026;-74
2023/03/17 05:15:15;;;;;;;6.78;3.20;;;9.50;99.90;;;;;;4993874;28;20019;-73
2023/03/17 05:17:40;;;;;;;4.68;3.10;;;9.50;99.90;;;;;;5009012;28;20446;-74
2023/03/17 05:20:08;;;;;;;6.63;3.50;;;9.50;99.90;;;;;;5004925;28;20022;-74
2023/03/17 05:22:34;;;;;;;5.82;3.20;;;9.50;99.90;;;;;;5010528;28;20019;-73
2023/03/17 05:24:59;;;;;;;5.85;3.42;;;9.50;99.90;;;;;;4982778;28;20036;-74
2023/03/17 05:27:25;;;;;;;5.65;3.08;;;9.50;99.90;;;;;;5008506;28;20473;-73
2023/03/17 05:29:51;;;;;;;7.65;3.25;;;9.50;99.90;;;;;;5012951;28;20041;-73
2023/03/17 05:32:17;;;;;;;5.43;3.00;;;9.50;99.90;;;;;;5000682;28;20033;-73
2023/03/17 05:34:43;;;;;;;7.22;3.17;;;9.50;99.90;;;;;;4991421;28;20429;-74
2023/03/17 05:37:10;;;;;;;6.65;3.10;;;9.50;99.90;;;;;;4975973;28;20029;-74
2023/03/17 05:39:35;;;;;;;8.35;3.33;;;9.50;99.90;;;;;;4992861;28;20019;-73
2023/03/17 05:42:01;;;;;;;6.20;3.30;;;9.50;99.90;;;;;;5001697;28;20394;-73
2023/03/17 05:44:27;;;;;;;6.80;3.33;;;9.50;99.90;;;;;;4999750;28;20030;-73
2023/03/17 05:46:54;;;;;;;6.22;3.13;;;9.50;99.90;;;;;;5008188;28;20969;-73
2023/03/17 05:49:19;;;;;;;5.82;3.10;;;9.50;99.90;;;;;;4991076;28;20551;-73
2023/03/17 05:51:45;;;;;;;5.88;3.20;;;9.50;99.90;;;;;;5013130;28;20030;-74
2023/03/17 05:54:11;;;;;;;7.68;3.40;;;9.40;99.90;;;;;;5003570;28;20030;-74
2023/03/17 05:56:37;;;;;;;5.35;3.25;;;9.40;99.90;;;;;;5013340;28;20377;-75
2023/03/17 05:59:03;;;;;;;5.15;3.08;;;9.40;99.90;;;;;;5017937;28;20080;-75
2023/03/17 06:01:30;;;;;;;5.43;3.20;;;9.40;99.90;;;;;;5003728;28;20559;-74
2023/03/17 06:03:55;;;;;;;8.50;3.67;;;9.40;99.90;;;;;;5012300;28;20026;-74
2023/03/17 06:06:22;;;;;;;6.15;3.45;;;9.40;99.90;;;;;;4999587;28;20042;-73
2023/03/17 06:08:49;;;;;;;5.68;3.60;;;9.40;99.90;;;;;;5010863;28;20100;-73
2023/03/17 06:11:14;;;;;;;7.20;3.38;;;9.30;99.90;;;;;;5013412;28;20076;-73
2023/03/17 06:13:40;;;;;;;7.05;3.60;;;9.30;99.90;;;;;;4998880;28;20026;-74
2023/03/17 06:16:06;;;;;;;7.00;3.50;;;9.30;99.90;;;;;;5013980;28;20030;-74
2023/03/17 06:18:32;;;;;;;9.43;3.88;;;9.30;99.90;;;;;;5000459;28;20026;-74
2023/03/17 06:20:57;;;;;;;9.90;3.90;;;9.20;99.90;;;;;;5013807;28;20018;-73
2023/03/17 06:23:23;;;;;;;8.55;3.58;;;9.30;99.90;;;;;;5003092;28;20527;-74
2023/03/17 06:25:52;;;;;;;7.10;3.60;;;9.30;99.90;;;;;;5014488;28;20129;-74
2023/03/17 06:28:18;;;;;;;6.15;3.70;;;9.30;99.90;;;;;;5008180;28;20090;-74
2023/03/17 06:30:44;;;;;;;6.30;3.50;;;9.30;99.90;;;;;;5007255;28;20684;-74
2023/03/17 06:33:10;;;;;;;7.38;3.65;;;9.30;99.90;;;;;;5005279;28;20109;-74
2023/03/17 06:35:37;;;;;;;6.43;3.72;;;9.30;99.90;;;;;;5004824;28;20019;-74
2023/03/17 06:38:03;;;;;;;6.53;3.70;;;9.30;99.90;;;;;;5009491;28;20427;-74
2023/03/17 06:40:31;;;;;;;8.50;3.65;;;9.20;99.90;;;;;;5007111;28;20464;-73
2023/03/17 06:42:57;;;;;;;5.65;3.30;;;9.30;99.90;;;;;;4986679;28;20018;-74
2023/03/17 06:45:23;;;;;;;6.30;3.15;;;9.30;99.90;;;;;;4982833;28;20030;-74
2023/03/17 06:47:49;;;;;;;10.18;3.47;;;9.30;99.90;;;;;;4995805;28;20027;-74
2023/03/17 06:50:15;;;;;;;5.95;3.47;;;9.30;99.90;;;;;;5005776;28;20413;-74
2023/03/17 06:52:40;;;;;;;8.38;3.45;;;9.40;99.90;;;;;;4998379;28;20027;-74
2023/03/17 06:55:07;;;;;;;9.05;3.78;;;9.40;99.90;;;;;;5002856;28;20427;-74
2023/03/17 06:57:33;;;;;;;8.68;3.72;;;9.40;99.90;;;;;;4998828;28;20022;-74
2023/03/17 06:59:58;;;;;;;7.35;3.47;;;9.40;99.90;;;;;;4999789;28;20437;-74
2023/03/17 07:02:24;;;;;;;8.63;3.63;;;9.40;99.90;;;;;;4996059;28;20057;-74
2023/03/17 07:04:50;;;;;;;6.85;3.67;;;9.50;99.90;;;;;;5005102;28;20036;-74
2023/03/17 07:07:16;;;;;;;5.18;3.47;;;9.50;99.90;;;;;;5004502;28;20152;-74
2023/03/17 07:09:42;;;;;;;7.60;3.45;;;9.50;99.90;;;;;;4995993;28;20046;-72
2023/03/17 07:12:09;;;;;;;6.53;3.50;;;9.50;99.90;;;;;;5014507;28;20022;-74
2023/03/17 07:14:35;;;;;;;7.35;3.70;;;9.50;99.90;;;;;;5014086;28;20104;-73
2023/03/17 07:17:02;;;;;;;8.07;3.50;;;9.50;99.90;;;;;;5001784;28;20018;-74
2023/03/17 07:19:30;;;;;;;6.82;3.35;;;9.50;99.90;;;;;;5006031;28;20413;-73
2023/03/17 07:21:55;;;;;;;6.47;3.65;;;9.60;99.90;;;;;;5013894;28;20109;-74
2023/03/17 07:24:22;;;;;;;7.05;3.22;;;9.60;99.90;;;;;;5013805;28;20104;-74
2023/03/17 07:26:48;;;;;;;7.85;3.58;;;9.60;99.90;;;;;;5013703;28;20433;-74
2023/03/17 07:29:14;;;;;;;7.00;3.28;;;9.60;99.90;;;;;;4982005;28;20110;-74
2023/03/17 07:31:39;;;;;;;7.70;3.70;;;9.70;99.90;;;;;;5013742;28;20018;-74
2023/03/17 07:34:06;;;;;;;6.97;3.35;;;9.70;99.90;;;;;;5001234;28;20478;-73
2023/03/17 07:36:32;;;;;;;6.45;3.70;;;9.80;99.90;;;;;;4994454;28;20018;-73
2023/03/17 07:39:00;;;;;;;6.32;3.50;;;9.80;99.90;;;;;;5004587;28;20103;-73
2023/03/17 07:41:27;;;;;;;7.03;3.63;;;9.90;99.90;;;;;;5013494;28;20461;-73
2023/03/17 07:43:55;;;;;;;5.80;3.67;;;9.90;99.90;;;;;;5013233;28;20026;-74
2023/03/17 07:46:20;;;;;;;7.20;3.90;;;10.00;99.90;;;;;;5007211;28;20180;-73
2023/03/17 07:48:47;;;;;;;8.95;3.70;;;10.00;99.90;;;;;;5001724;28;20533;-73
2023/03/17 07:51:15;;;;;;;6.22;3.97;;;10.00;99.90;;;;;;5004528;28;20019;-72
2023/03/17 07:53:41;;;;;;;12.10;4.07;;;10.00;99.90;;;;;;5000359;28;20041;-73
2023/03/17 07:56:07;;;;;;;8.25;3.85;;;10.00;99.90;;;;;;5011954;28;20558;-73
2023/03/17 07:58:34;;;;;;;8.73;4.10;;;10.00;99.90;;;;;;5012308;28;20036;-74
2023/03/17 08:01:00;;;;;;;10.48;4.85;;;9.90;99.90;;;;;;5010923;28;20030;-74
2023/03/17 08:03:26;;;;;;;8.57;4.63;;;10.00;99.90;;;;;;5011137;28;20025;-73
2023/03/17 08:05:54;;;;;;;8.32;4.82;;;10.00;99.90;;;;;;5011559;28;20515;-73
2023/03/17 08:08:21;;;;;;;8.93;4.88;;;10.00;99.90;;;;;;4995809;28;20401;-74
2023/03/17 08:10:50;;;;;;;9.35;4.60;;;10.00;99.90;;;;;;5011388;28;20104;-74
2023/03/17 08:13:17;;;;;;;12.65;4.57;;;10.00;99.90;;;;;;5010538;28;20018;-74
2023/03/17 08:15:43;;;;;;;12.55;5.03;;;10.10;99.90;;;;;;5006579;28;20050;-74
2023/03/17 08:18:09;;;;;;;7.80;4.55;;;10.10;99.90;;;;;;5003279;28;20022;-73
2023/03/17 08:20:35;;;;;;;11.43;5.18;;;10.30;99.90;;;;;;4998355;28;20084;-74
2023/03/17 08:23:01;;;;;;;12.60;5.00;;;10.30;99.90;;;;;;5000348;28;20069;-75
2023/03/17 08:25:28;;;;;;;8.32;4.95;;;10.40;99.90;;;;;;4992505;28;20125;-75
2023/03/17 08:27:54;;;;;;;6.68;4.95;;;10.50;99.90;;;;;;5013490;28;20022;-76
2023/03/17 08:30:20;;;;;;;7.93;4.68;;;10.60;99.90;;;;;;5009647;28;20026;-75
2023/03/17 08:32:47;;;;;;;9.55;4.80;;;10.70;99.90;;;;;;5003788;28;20423;-75
2023/03/17 08:35:14;;;;;;;7.63;4.40;;;10.80;99.90;;;;;;5000026;28;20025;-74
2023/03/17 08:37:45;;;;;;;11.27;4.90;;;10.90;99.90;;;;;;5007925;28;20037;-74
2023/03/17 08:40:15;;;;;;;7.20;4.50;;;11.10;99.90;;;;;;5014614;28;20052;-75
2023/03/17 08:42:42;;;;;;;7.60;4.72;;;11.20;99.90;;;;;;5011948;28;20029;-74
2023/03/17 08:45:09;;;;;;;8.43;4.55;;;11.30;99.90;;;;;;5009459;28;20037;-73
2023/03/17 08:47:37;;;;;;;11.40;4.93;;;11.40;99.90;;;;;;5008667;28;20018;-73
2023/03/17 08:50:04;;;;;;;8.00;4.95;;;11.60;99.90;;;;;;5002890;28;20092;-73
2023/03/17 08:52:29;;;;;;;8.45;4.70;;;11.70;99.90;;;;;;5003227;28;20041;-73
2023/03/17 08:54:55;;;;;;;12.20;5.10;;;11.80;99.90;;;;;;5011071;28;20029;-73
2023/03/17 08:57:21;;;;;;;11.05;5.13;;;12.00;99.90;;;;;;5011279;28;20068;-74
2023/03/17 08:59:47;;;;;;;10.60;5.70;;;12.10;99.90;;;;;;5012410;28;20022;-73
2023/03/17 09:02:14;;;;;;;10.40;4.75;;;12.20;99.90;;;;;;5012517;28;20026;-73
2023/03/17 09:04:41;;;;;;;11.70;6.05;;;12.30;99.90;;;;;;5012084;28;20042;-73
2023/03/17 09:07:09;;;;;;;12.27;5.20;;;12.30;99.90;;;;;;4992716;28;20054;-71
2023/03/17 09:09:36;;;;;;;8.20;5.40;;;12.40;99.90;;;;;;5001188;28;20105;-72
2023/03/17 09:12:04;;;;;;;11.25;5.18;;;12.50;99.90;;;;;;4997782;28;20026;-72
2023/03/17 09:14:31;;;;;;;8.60;5.03;;;12.60;99.90;;;;;;4986896;28;20026;-72
2023/03/17 09:16:57;;;;;;;9.75;5.18;;;12.70;99.90;;;;;;5011900;28;20101;-72
2023/03/17 09:19:23;;;;;;;11.85;5.45;;;12.80;99.90;;;;;;5002975;28;20113;-72
2023/03/17 09:21:50;;;;;;;9.90;5.18;;;12.90;99.90;;;;;;5002791;28;20097;-72
2023/03/17 09:24:16;;;;;;;10.52;5.22;;;13.00;99.90;;;;;;5001244;28;20496;-71
2023/03/17 09:26:42;;;;;;;10.63;4.78;;;13.20;99.90;;;;;;5012312;28;20029;-72
2023/03/17 09:29:07;;;;;;;9.98;5.28;;;13.30;99.90;;;;;;4997056;28;20022;-72
2023/03/17 09:31:35;;;;;;;12.45;5.35;;;13.40;99.90;;;;;;5012147;28;20049;-73
2023/03/17 09:34:03;;;;;;;11.27;5.55;;;13.60;99.90;;;;;;5005520;28;20061;-72
2023/03/17 09:36:28;;;;;;;11.23;5.07;;;13.70;99.90;;;;;;5013690;28;20026;-77
2023/03/17 09:38:54;;;;;;;12.68;5.68;;;13.70;99.90;;;;;;5009185;28;20351;-75
2023/03/17 09:41:19;;;;;;;9.18;4.90;;;13.80;99.90;;;;;;5012295;28;20033;-74
2023/03/17 09:43:51;;;;;;;11.18;4.95;;;13.80;99.90;;;;;;5017047;28;20087;-75
2023/03/17 09:46:31;;;;;;;11.60;5.20;;;13.70;99.90;;;;;;5016729;28;20388;-75
2023/03/17 09:49:10;;;;;;;10.73;5.00;;;13.70;99.90;;;;;;5016815;28;20121;-75
2023/03/17 09:51:37;;;;;;;10.77;5.20;;;13.70;99.90;;;;;;5002994;28;20027;-75
2023/03/17 09:54:10;;;;;;;12.18;5.40;;;13.60;99.90;;;;;;4998555;28;20111;-75
2023/03/17 09:56:40;;;;;;;11.80;4.82;;;13.60;99.90;;;;;;4997659;28;20030;-75
2023/03/17 09:59:26;;;;;;;12.43;5.40;;;13.70;99.90;;;;;;5016905;28;20705;-75
2023/03/17 10:01:52;;;;;;;8.85;5.28;;;13.80;99.90;;;;;;5015933;28;20054;-76
2023/03/17 10:04:18;;;;;;;8.60;5.05;;;13.90;99.90;;;;;;5012613;28;20112;-76
2023/03/17 10:06:48;;;;;;;12.00;5.15;;;14.00;99.90;;;;;;5000469;28;20034;-75
2023/03/17 10:09:22;;;;;;;10.82;5.43;;;14.20;99.90;;;;;;5016701;28;20022;-75
2023/03/17 10:11:53;;;;;;;12.63;5.45;;;14.40;99.90;;;;;;5005065;28;20037;-75
2023/03/17 10:14:30;;;;;;;12.60;5.53;;;14.60;99.90;;;;;;4998171;28;20038;-75
2023/03/17 10:17:23;;;;;;;10.85;5.75;;;14.70;99.90;;;;;;5010079;28;20014;-76
2023/03/17 10:20:04;;;;;;;10.88;5.72;;;14.80;99.90;;;;;;5017147;28;20101;-75
2023/03/17 10:22:38;;;;;;;9.77;5.15;;;14.80;99.90;;;;;;5016728;28;20091;-76
2023/03/17 10:25:17;;;;;;;11.87;6.03;;;14.80;99.90;;;;;;5016239;28;20537;-76
2023/03/17 10:27:52;;;;;;;11.73;5.75;;;14.90;99.90;;;;;;4999429;28;20026;-76
2023/03/17 10:30:21;;;;;;;10.27;6.20;;;14.90;99.90;;;;;;5017370;28;20045;-73
2023/03/17 10:32:47;;;;;;;10.13;5.82;;;14.90;99.90;;;;;;5015078;28;20112;-74
2023/03/17 10:35:14;;;;;;;12.50;6.07;;;14.90;99.90;;;;;;4997489;28;20105;-73
2023/03/17 10:37:41;;;;;;;12.85;6.38;;;14.90;99.90;;;;;;5010620;28;20026;-74
2023/03/17 10:40:19;;;;;;;10.02;5.82;;;14.80;99.90;;;;;;5014705;28;20018;-78
2023/03/17 10:42:52;;;;;;;12.82;6.15;;;14.80;99.90;;;;;;4984931;28;20540;-74
2023/03/17 10:45:31;;;;;;;9.68;5.80;;;14.80;99.90;;;;;;5003351;28;20061;-74
2023/03/17 10:47:59;;;;;;;13.52;6.25;;;14.80;99.90;;;;;;5001857;28;20030;-74
2023/03/17 10:50:27;;;;;;;10.27;6.40;;;14.80;99.90;;;;;;5008949;28;20010;-74
2023/03/17 10:53:19;;;;;;;11.90;6.53;;;14.70;99.90;;;;;;4996064;28;20027;-74
2023/03/17 10:55:50;;;;;;;9.73;6.18;;;14.60;99.90;;;;;;4996731;28;20057;-74
2023/03/17 10:58:36;;;;;;;11.73;6.22;;;14.60;99.90;;;;;;5007884;28;20028;-73
2023/03/17 11:01:06;;;;;;;12.90;6.15;;;14.60;99.90;;;;;;5008258;28;20038;-74
2023/03/17 11:03:37;;;;;;;13.65;6.60;;;14.60;99.90;;;;;;5015926;28;20584;-74
2023/03/17 11:06:04;;;;;;;13.68;6.35;;;14.60;99.90;;;;;;5003678;28;20090;-74
2023/03/17 11:08:40;;;;;;;13.90;6.38;;;14.50;99.90;;;;;;5002564;28;20025;-74
2023/03/17 11:11:09;;;;;;;13.57;6.43;;;14.50;99.90;;;;;;4996536;28;20033;-74
2023/03/17 11:13:35;;;;;;;10.75;6.60;;;14.50;99.90;;;;;;5005909;28;20038;-74
2023/03/17 11:16:16;;;;;;;12.25;6.55;;;14.50;99.90;;;;;;5000118;28;20029;-74
2023/03/17 11:18:42;;;;;;;11.13;6.68;;;14.50;99.90;;;;;;5015017;28;20032;-75
2023/03/17 11:21:09;;;;;;;11.40;6.57;;;14.40;99.90;;;;;;5014152;28;20025;-75
2023/03/17 11:24:13;;;;;;;10.77;6.28;;;14.40;99.90;;;;;;5013189;28;20022;-75
2023/03/17 11:27:19;;;;;;;14.65;7.13;;;14.30;99.90;;;;;;4980614;28;20027;-74
2023/03/17 11:30:00;;;;;;;12.38;6.88;;;14.30;99.90;;;;;;4956879;28;20517;-75
2023/03/17 11:32:46;;;;;;;11.82;6.68;;;14.20;99.90;;;;;;4954591;28;20058;-76
2023/03/17 11:35:52;;;;;;;15.80;7.32;;;14.30;99.90;;;;;;4955071;29;20039;-75
2023/03/17 11:38:21;;;;;;;17.00;7.05;;;14.40;99.90;;;;;;4954735;28;20098;-77
2023/03/17 11:40:58;;;;;;;13.02;6.88;;;14.50;99.90;;;;;;4953926;29;20027;-77
2023/03/17 11:43:58;;;;;;;13.75;6.90;;;14.70;99.90;;;;;;4949202;29;20028;-77
2023/03/17 11:46:48;;;;;;;13.07;6.82;;;14.90;99.90;;;;;;4951230;29;20114;-77
2023/03/17 11:49:21;;;;;;;11.82;7.20;;;15.00;99.90;;;;;;4954058;29;20058;-77
2023/03/17 11:51:55;;;;;;;9.80;6.72;;;15.10;99.90;;;;;;4954061;29;20039;-77
2023/03/17 11:55:15;;;;;;;11.75;6.82;;;15.20;99.90;;;;;;4943368;28;20278;-77
2023/03/17 11:57:47;;;;;;;12.88;6.22;;;15.30;99.90;;;;;;4897880;29;20020;-77
2023/03/17 12:00:18;;;;;;;12.85;6.75;;;15.40;99.90;;;;;;4899350;29;20040;-77
2023/03/17 12:03:15;;;;;;;11.38;6.65;;;15.50;99.90;;;;;;4900911;29;20036;-80
2023/03/17 12:05:43;;;;;;;15.57;6.95;;;15.50;99.90;;;;;;4919559;29;20028;-76
2023/03/17 12:08:36;;;;;;;13.00;6.30;;;15.50;99.90;;;;;;4911375;29;20118;-78
2023/03/17 12:11:07;;;;;;;13.25;6.13;;;15.70;99.90;;;;;;4906199;29;20070;-79
2023/03/17 12:13:45;;;;;;;11.90;6.03;;;15.80;99.90;;;;;;4915571;29;20431;-79
2023/03/17 12:16:45;;;;;;;10.57;5.88;;;15.90;99.90;;;;;;4920308;29;20125;-78
2023/03/17 12:19:23;;;;;;;11.45;5.88;;;16.00;99.90;;;;;;4912570;29;20032;-78
2023/03/17 12:21:58;;;;;;;16.33;6.22;;;16.00;99.90;;;;;;4915503;29;20040;-76
2023/03/17 12:24:33;;;;;;;12.38;6.30;;;16.20;99.90;;;;;;4913392;29;20051;-74
2023/03/17 12:27:23;;;;;;;11.07;6.50;;;16.30;99.90;;;;;;4913823;28;20036;-75
2023/03/17 12:30:02;;;;;;;15.68;6.90;;;16.40;99.90;;;;;;5000686;28;20072;-76
2023/03/17 12:32:52;;;;;;;12.88;6.40;;;16.40;99.90;;;;;;4998787;28;20061;-74
2023/03/17 12:35:30;;;;;;;13.63;7.35;;;16.40;99.90;;;;;;5005753;28;20030;-73
2023/03/17 12:37:58;;;;;;;13.65;6.95;;;16.30;99.90;;;;;;5007115;28;20109;-71
2023/03/17 12:40:34;;;;;;;13.95;6.75;;;16.20;99.90;;;;;;5014067;28;20021;-71
2023/03/17 12:43:35;;;;;;;11.45;6.75;;;16.10;99.90;;;;;;5013244;28;20059;-73
2023/03/17 12:46:21;;;;;;;13.45;6.30;;;16.00;99.90;;;;;;5005579;28;20018;-73
2023/03/17 12:49:12;;;;;;;11.25;6.00;;;15.90;99.90;;;;;;5000964;28;20049;-72
2023/03/17 12:52:16;;;;;;;11.27;6.07;;;15.90;99.90;;;;;;5013419;28;20092;-72
2023/03/17 12:54:47;;;;;;;13.10;6.32;;;15.90;99.90;;;;;;5009468;28;20034;-72
2023/03/17 12:57:26;;;;;;;12.98;6.40;;;15.90;99.90;;;;;;5008433;28;20022;-72
2023/03/17 13:00:04;;;;;;;11.52;6.15;;;15.90;99.90;;;;;;5010124;28;20112;-72
2023/03/17 13:02:38;;;;;;;10.65;6.05;;;15.90;99.90;;;;;;5013711;28;20109;-72
2023/03/17 13:05:12;;;;;;;13.25;6.85;;;15.90;99.90;;;;;;5013155;28;20153;-72